createdAt,value
2019-06-20T00:01:12.487Z,79.40
2019-06-20T00:03:40.880Z,78.70
2019-06-20T00:06:09.299Z,78.70
2019-06-20T00:08:37.689Z,78.70
2019-06-20T00:11:06.185Z,78.80
2019-06-20T00:13:34.592Z,78.90
2019-06-20T00:16:03.803Z,79.00
2019-06-20T00:18:32.257Z,78.90
2019-06-20T00:21:00.676Z,78.80
2019-06-20T00:23:29.075Z,79.00
2019-06-20T00:25:57.478Z,78.90
2019-06-20T00:28:25.869Z,78.90
2019-06-20T00:30:54.274Z,79.10
2019-06-20T00:33:22.687Z,79.20
2019-06-20T00:35:51.077Z,79.30
2019-06-20T00:38:19.806Z,79.40
2019-06-20T00:40:48.215Z,79.20
2019-06-20T00:43:18.218Z,79.20
2019-06-20T00:45:46.736Z,79.00
2019-06-20T00:48:15.142Z,79.00
2019-06-20T00:50:44.053Z,78.80
2019-06-20T00:53:12.450Z,78.70
2019-06-20T00:55:40.853Z,78.70
2019-06-20T00:58:09.249Z,78.90
2019-06-20T01:00:37.808Z,78.90
2019-06-20T01:03:07.189Z,79.00
2019-06-20T01:05:35.601Z,79.10
2019-06-20T01:08:03.985Z,79.10
2019-06-20T01:10:32.391Z,78.90
2019-06-20T01:13:00.795Z,79.00
2019-06-20T01:15:29.215Z,79.10
2019-06-20T01:17:57.597Z,79.20
2019-06-20T01:20:26.343Z,79.10
2019-06-20T01:22:54.745Z,79.00
2019-06-20T01:25:37.143Z,78.90
2019-06-20T01:28:05.818Z,78.70
2019-06-20T01:30:34.217Z,78.60
2019-06-20T01:33:02.647Z,78.50
2019-06-20T01:35:31.038Z,78.30
2019-06-20T01:37:59.442Z,78.20
2019-06-20T01:40:27.877Z,78.20
2019-06-20T01:42:56.339Z,78.10
2019-06-20T01:45:24.825Z,77.90
2019-06-20T01:47:53.274Z,78.70
2019-06-20T01:50:21.758Z,77.70
2019-06-20T01:52:50.200Z,77.60
2019-06-20T01:55:18.595Z,77.60
2019-06-20T01:57:47.017Z,77.80
2019-06-20T02:00:18.818Z,77.60
2019-06-20T02:02:47.239Z,77.60
2019-06-20T02:05:15.710Z,77.70
2019-06-20T02:07:44.135Z,77.70
2019-06-20T02:10:13.142Z,77.80
2019-06-20T02:12:41.851Z,77.90
2019-06-20T02:15:10.254Z,78.10
2019-06-20T02:17:38.681Z,78.30
2019-06-20T02:20:07.921Z,78.40
2019-06-20T02:22:37.253Z,78.60
2019-06-20T02:25:07.201Z,78.50
2019-06-20T02:27:35.988Z,78.50
2019-06-20T02:30:05.863Z,78.60
2019-06-20T02:32:34.277Z,78.60
2019-06-20T02:35:03.065Z,78.40
2019-06-20T02:37:31.473Z,79.10
2019-06-20T02:39:59.869Z,78.50
2019-06-20T02:42:28.280Z,78.50
2019-06-20T02:44:56.678Z,78.60
2019-06-20T02:47:25.591Z,78.70
2019-06-20T02:49:54.002Z,78.70
2019-06-20T02:52:22.854Z,78.80
2019-06-20T02:54:51.267Z,78.70
2019-06-20T02:57:19.663Z,78.70
2019-06-20T02:59:48.094Z,78.50
2019-06-20T03:02:16.491Z,78.60
2019-06-20T03:04:45.719Z,78.20
2019-06-20T03:07:14.311Z,77.80
2019-06-20T03:09:42.717Z,77.60
2019-06-20T03:12:11.113Z,77.50
2019-06-20T03:14:45.477Z,77.50
2019-06-20T03:17:09.658Z,77.60
2019-06-20T03:19:38.392Z,77.80
2019-06-20T03:22:06.855Z,78.00
2019-06-20T03:24:35.249Z,77.90
2019-06-20T03:27:03.653Z,77.90
2019-06-20T03:29:32.053Z,78.00
2019-06-20T03:32:00.483Z,78.00
2019-06-20T03:34:28.879Z,78.30
2019-06-20T03:36:57.550Z,78.50
2019-06-20T03:39:25.954Z,78.50
2019-06-20T03:41:54.988Z,78.70
2019-06-20T03:44:23.393Z,78.70
2019-06-20T03:46:51.788Z,78.70
2019-06-20T03:49:20.572Z,78.80
2019-06-20T03:51:51.664Z,78.80
2019-06-20T03:54:19.381Z,79.00
2019-06-20T03:56:47.784Z,79.10
2019-06-20T03:59:16.201Z,79.10
2019-06-20T04:01:44.627Z,79.10
2019-06-20T04:04:13.047Z,79.30
2019-06-20T04:06:41.441Z,79.30
2019-06-20T04:09:09.854Z,79.30
2019-06-20T04:11:38.258Z,79.40
2019-06-20T04:14:06.789Z,79.50
2019-06-20T04:16:35.599Z,79.20
2019-06-20T04:19:04.093Z,79.60
2019-06-20T04:21:32.527Z,79.70
2019-06-20T04:24:01.016Z,79.80
2019-06-20T04:26:30.054Z,79.90
2019-06-20T04:28:58.463Z,80.10
2019-06-20T04:31:26.872Z,80.20
2019-06-20T04:33:55.274Z,80.20
2019-06-20T04:36:23.670Z,80.40
2019-06-20T04:38:52.081Z,80.60
2019-06-20T04:41:20.722Z,80.70
2019-06-20T04:43:49.105Z,81.00
2019-06-20T04:46:19.167Z,81.10
2019-06-20T04:48:47.602Z,81.20
2019-06-20T04:51:16.113Z,81.30
2019-06-20T04:53:44.588Z,81.40
2019-06-20T04:56:12.997Z,81.40
2019-06-20T04:58:41.407Z,81.50
2019-06-20T05:01:09.890Z,81.40
2019-06-20T05:03:38.311Z,81.60
2019-06-20T05:06:06.811Z,81.50
2019-06-20T05:08:35.291Z,81.50
2019-06-20T05:11:03.741Z,81.50
2019-06-20T05:13:32.173Z,81.50
2019-06-20T05:16:00.562Z,81.60
2019-06-20T05:18:28.975Z,81.50
2019-06-20T05:20:57.392Z,81.50
2019-06-20T05:23:25.797Z,81.20
2019-06-20T05:25:54.316Z,81.10
2019-06-20T05:28:22.980Z,81.00
2019-06-20T05:30:51.484Z,80.90
2019-06-20T05:33:19.955Z,80.90
2019-06-20T05:35:48.452Z,80.60
2019-06-20T05:38:16.860Z,80.50
2019-06-20T05:40:46.234Z,80.20
2019-06-20T05:43:14.649Z,80.10
2019-06-20T05:45:46.210Z,79.70
2019-06-20T05:48:13.181Z,79.50
2019-06-20T05:50:41.768Z,79.30
2019-06-20T05:53:10.693Z,79.10
2019-06-20T05:55:39.281Z,79.00
2019-06-20T05:58:07.751Z,78.90
2019-06-20T06:00:36.170Z,79.00
2019-06-20T06:03:07.164Z,78.70
2019-06-20T06:05:34.711Z,78.30
2019-06-20T06:08:04.397Z,77.80
2019-06-20T06:10:32.826Z,77.40
2019-06-20T06:13:01.237Z,76.70
2019-06-20T06:15:29.665Z,76.00
2019-06-20T06:17:58.062Z,74.60
2019-06-20T06:20:27.385Z,74.70
2019-06-20T06:22:55.794Z,74.40
2019-06-20T06:25:24.215Z,73.80
2019-06-20T06:27:52.666Z,73.60
2019-06-20T06:30:21.353Z,72.70
2019-06-20T06:32:49.765Z,72.60
2019-06-20T06:35:18.610Z,72.70
2019-06-20T06:37:47.011Z,72.70
2019-06-20T06:40:15.853Z,72.50
2019-06-20T06:42:44.290Z,72.10
2019-06-20T06:45:13.594Z,71.70
2019-06-20T06:47:42.086Z,71.70
2019-06-20T06:50:12.020Z,71.60
2019-06-20T06:52:40.428Z,71.20
2019-06-20T06:55:09.186Z,70.90
2019-06-20T06:57:38.151Z,71.00
2019-06-20T07:00:14.197Z,71.20
2019-06-20T07:02:42.602Z,70.70
2019-06-20T07:05:11.346Z,70.30
2019-06-20T07:07:39.751Z,70.20
2019-06-20T07:10:10.157Z,69.70
2019-06-20T07:12:38.817Z,70.20
2019-06-20T07:15:08.875Z,70.30
2019-06-20T07:17:37.276Z,69.70
2019-06-20T07:20:07.010Z,69.80
2019-06-20T07:22:36.110Z,68.00
2019-06-20T07:25:06.926Z,65.80
2019-06-20T07:27:35.514Z,64.60
2019-06-20T07:30:09.253Z,62.30
2019-06-20T07:32:44.888Z,62.20
2019-06-20T07:35:15.111Z,62.00
2019-06-20T07:37:43.632Z,61.90
2019-06-20T07:40:12.693Z,61.70
2019-06-20T07:42:41.119Z,60.60
2019-06-20T07:45:10.474Z,60.80
2019-06-20T07:47:39.084Z,60.80
2019-06-20T07:50:09.834Z,61.10
2019-06-20T07:52:38.303Z,60.40
2019-06-20T07:55:07.952Z,59.70
2019-06-20T07:57:36.431Z,59.50
2019-06-20T08:00:09.448Z,59.20
2019-06-20T08:02:37.851Z,58.30
2019-06-20T08:05:06.901Z,58.20
2019-06-20T08:07:35.497Z,58.30
2019-06-20T08:10:07.144Z,58.50
2019-06-20T08:12:35.620Z,58.60
2019-06-20T08:15:15.043Z,57.30
2019-06-20T08:17:36.689Z,56.70
2019-06-20T08:20:08.335Z,56.50
2019-06-20T08:22:36.946Z,56.80
2019-06-20T08:25:06.380Z,56.20
2019-06-20T08:27:55.976Z,55.90
2019-06-20T08:30:29.618Z,56.20
2019-06-20T08:33:01.102Z,56.30
2019-06-20T08:39:09.695Z,56.40
2019-06-20T08:41:40.900Z,56.00
2019-06-20T08:44:32.027Z,56.40
2019-06-20T08:47:01.195Z,56.60
2019-06-20T08:49:31.229Z,55.90
2019-06-20T08:51:59.724Z,55.50
2019-06-20T08:54:28.221Z,55.40
2019-06-20T08:56:59.052Z,55.90
2019-06-20T08:59:27.463Z,56.60
2019-06-20T09:05:05.635Z,56.00
2019-06-20T09:07:34.264Z,54.30
2019-06-20T09:10:04.286Z,53.80
2019-06-20T09:12:32.875Z,53.80
2019-06-20T09:15:01.367Z,54.00
2019-06-20T09:17:29.811Z,54.10
2019-06-20T09:19:58.287Z,54.20
2019-06-20T09:25:53.442Z,53.00
2019-06-20T09:28:22.235Z,52.20
2019-06-20T09:30:51.885Z,51.20
2019-06-20T09:33:20.840Z,51.00
2019-06-20T09:35:49.246Z,51.60
2019-06-20T09:38:17.633Z,51.80
2019-06-20T09:40:46.104Z,52.20
2019-06-20T09:43:26.731Z,52.30
2019-06-20T09:45:44.637Z,51.50
2019-06-20T09:48:13.034Z,50.20
2019-06-20T09:50:41.443Z,49.70
2019-06-20T09:53:10.054Z,50.10
2019-06-20T09:55:38.527Z,50.30
2019-06-20T09:58:06.936Z,50.20
2019-06-20T10:00:36.509Z,49.80
2019-06-20T10:03:05.605Z,49.80
2019-06-20T10:05:34.282Z,49.90
2019-06-20T10:08:02.677Z,49.50
2019-06-20T10:10:32.937Z,48.50
2019-06-20T10:13:01.333Z,48.80
2019-06-20T10:15:32.849Z,49.20
2019-06-20T10:18:01.486Z,49.60
2019-06-20T10:20:30.374Z,50.00
2019-06-20T10:22:58.792Z,50.30
2019-06-20T10:25:27.262Z,49.70
2019-06-20T10:27:55.916Z,49.60
2019-06-20T10:30:26.674Z,49.40
2019-06-20T10:32:55.382Z,49.40
2019-06-20T10:35:23.865Z,49.30
2019-06-20T10:37:52.970Z,49.10
2019-06-20T10:40:21.982Z,48.70
2019-06-20T10:42:50.391Z,48.50
2019-06-20T10:45:20.782Z,48.90
2019-06-20T10:47:50.796Z,48.90
2019-06-20T10:50:19.943Z,48.90
2019-06-20T10:52:49.983Z,48.30
2019-06-20T10:55:19.160Z,48.40
2019-06-20T10:57:49.636Z,48.40
2019-06-20T11:00:30.384Z,48.20
2019-06-20T11:02:49.127Z,48.40
2019-06-20T11:05:18.584Z,48.30
2019-06-20T11:07:47.548Z,47.80
2019-06-20T11:10:17.876Z,47.80
2019-06-20T11:12:52.955Z,48.00
2019-06-20T11:15:18.573Z,48.30
2019-06-20T11:17:48.457Z,48.90
2019-06-20T11:20:17.693Z,49.20
2019-06-20T11:22:47.588Z,49.10
2019-06-20T11:25:19.163Z,48.80
2019-06-20T11:27:47.342Z,48.70
2019-06-20T11:30:18.530Z,48.00
2019-06-20T11:32:48.751Z,47.40
2019-06-20T11:35:17.241Z,46.30
2019-06-20T11:37:47.067Z,46.00
2019-06-20T11:40:17.527Z,46.00
2019-06-20T11:42:46.929Z,45.90
2019-06-20T11:45:16.018Z,45.60
2019-06-20T11:47:44.394Z,44.80
2019-06-20T11:50:13.230Z,44.70
2019-06-20T11:52:45.367Z,44.70
2019-06-20T11:55:13.197Z,45.00
2019-06-20T11:57:41.661Z,45.80
2019-06-20T12:00:10.997Z,45.10
2019-06-20T12:02:40.508Z,45.20
2019-06-20T12:05:11.424Z,45.00
2019-06-20T12:07:41.530Z,44.70
2019-06-20T12:10:12.075Z,44.80
2019-06-20T12:12:41.005Z,45.50
2019-06-20T12:15:10.590Z,46.10
2019-06-20T12:17:41.011Z,46.30
2019-06-20T12:20:11.216Z,46.20
2019-06-20T12:22:41.323Z,46.10
2019-06-20T12:25:11.457Z,46.30
2019-06-20T12:27:40.768Z,46.30
2019-06-20T12:30:14.345Z,46.00
2019-06-20T12:32:42.815Z,46.00
2019-06-20T12:35:11.955Z,46.40
2019-06-20T12:37:40.627Z,46.90
2019-06-20T12:40:09.850Z,47.20
2019-06-20T12:42:40.986Z,47.60
2019-06-20T12:45:09.430Z,47.70
2019-06-20T12:47:38.783Z,47.90
2019-06-20T12:50:08.692Z,48.20
2019-06-20T12:52:37.654Z,48.30
2019-06-20T12:55:07.361Z,48.50
2019-06-20T12:57:35.779Z,48.70
2019-06-20T13:00:07.573Z,49.10
2019-06-20T13:02:37.021Z,49.50
2019-06-20T13:05:07.057Z,49.90
2019-06-20T13:07:35.465Z,50.30
2019-06-20T13:10:07.092Z,50.30
2019-06-20T13:12:35.491Z,51.70
2019-06-20T13:15:04.830Z,52.50
2019-06-20T13:17:34.391Z,53.50
2019-06-20T13:20:03.498Z,54.40
2019-06-20T13:22:31.945Z,55.30
2019-06-20T13:25:00.364Z,56.50
2019-06-20T13:27:28.788Z,57.70
2019-06-20T13:29:57.208Z,59.00
2019-06-20T13:32:25.769Z,58.70
2019-06-20T13:34:54.176Z,60.60
2019-06-20T13:37:22.566Z,61.50
2019-06-20T13:39:51.047Z,62.30
2019-06-20T13:42:19.544Z,62.60
2019-06-20T13:44:48.271Z,63.10
2019-06-20T13:47:16.703Z,63.60
2019-06-20T13:49:45.842Z,64.00
2019-06-20T13:52:14.285Z,64.30
2019-06-20T13:54:44.378Z,64.20
2019-06-20T13:57:13.117Z,64.20
2019-06-20T13:59:41.688Z,64.30
2019-06-20T14:02:10.346Z,64.40
2019-06-20T14:04:41.037Z,64.50
2019-06-20T14:07:08.965Z,64.60
2019-06-20T14:09:37.503Z,64.80
2019-06-20T14:12:05.939Z,64.80
2019-06-20T14:14:34.362Z,65.00
2019-06-20T14:17:02.836Z,64.70
2019-06-20T14:19:31.276Z,64.70
2019-06-20T14:21:59.679Z,64.90
2019-06-20T14:24:28.220Z,64.90
2019-06-20T14:26:56.734Z,64.80
2019-06-20T14:29:25.225Z,64.80
2019-06-20T14:31:53.929Z,64.90
2019-06-20T14:34:22.344Z,65.40
2019-06-20T14:36:52.137Z,65.70
2019-06-20T14:39:21.033Z,66.00
2019-06-20T14:41:51.301Z,66.20
2019-06-20T14:44:19.597Z,66.50
2019-06-20T14:46:48.946Z,66.50
2019-06-20T14:49:17.364Z,66.70
2019-06-20T14:51:47.141Z,66.90
2019-06-20T14:54:15.889Z,67.00
2019-06-20T14:56:44.999Z,67.10
2019-06-20T14:59:14.419Z,66.90
2019-06-20T15:01:44.614Z,66.90
2019-06-20T15:04:12.965Z,66.90
2019-06-20T15:06:41.457Z,67.00
2019-06-20T15:09:09.870Z,66.60
2019-06-20T15:11:38.302Z,66.70
2019-06-20T15:14:06.851Z,66.50
2019-06-20T15:16:35.275Z,66.20
2019-06-20T15:19:03.685Z,65.80
2019-06-20T15:21:32.124Z,65.70
2019-06-20T15:24:00.562Z,65.90
2019-06-20T15:26:28.981Z,65.80
2019-06-20T15:28:57.727Z,65.60
2019-06-20T15:31:26.137Z,66.30
2019-06-20T15:33:55.168Z,65.50
2019-06-20T15:36:23.720Z,65.30
2019-06-20T15:38:53.051Z,65.20
2019-06-20T15:41:21.672Z,65.00
2019-06-20T15:43:51.654Z,64.70
2019-06-20T15:46:20.310Z,64.50
2019-06-20T15:48:48.732Z,63.70
2019-06-20T15:51:17.184Z,63.40
2019-06-20T15:53:45.598Z,63.30
2019-06-20T15:56:14.114Z,62.90
2019-06-20T15:58:42.588Z,62.10
2019-06-20T16:01:11.039Z,61.60
2019-06-20T16:03:39.495Z,60.90
2019-06-20T16:06:07.886Z,60.90
2019-06-20T16:08:36.589Z,60.60
2019-06-20T16:11:05.098Z,61.20
2019-06-20T16:13:33.556Z,60.00
2019-06-20T16:16:01.995Z,59.50
2019-06-20T16:18:30.484Z,59.20
2019-06-20T16:20:58.879Z,58.60
2019-06-20T16:23:27.293Z,58.10
2019-06-20T16:25:55.707Z,57.90
2019-06-20T16:28:24.180Z,57.40
2019-06-20T16:31:05.204Z,57.40
2019-06-20T16:33:25.768Z,57.30
2019-06-20T16:35:54.243Z,57.00
2019-06-20T16:38:22.651Z,56.90
2019-06-20T16:40:51.130Z,56.80
2019-06-20T16:43:19.542Z,56.80
2019-06-20T16:45:47.933Z,56.70
2019-06-20T16:48:16.348Z,56.70
2019-06-20T16:50:44.822Z,56.60
2019-06-20T16:53:13.230Z,56.60
2019-06-20T16:55:41.708Z,56.60
2019-06-20T16:58:10.392Z,57.10
2019-06-20T17:00:38.865Z,56.30
2019-06-20T17:03:07.568Z,56.60
2019-06-20T17:05:36.043Z,56.70
2019-06-20T17:08:05.296Z,56.50
2019-06-20T17:10:33.786Z,56.30
2019-06-20T17:13:02.182Z,56.30
2019-06-20T17:15:30.695Z,56.00
2019-06-20T17:17:59.111Z,55.90
2019-06-20T17:20:27.514Z,55.90
2019-06-20T17:22:55.922Z,55.60
2019-06-20T17:25:24.420Z,55.50
2019-06-20T17:27:52.942Z,55.60
2019-06-20T17:30:22.241Z,55.70
2019-06-20T17:32:50.643Z,55.80
2019-06-20T17:35:19.631Z,55.90
2019-06-20T17:37:48.040Z,56.00
2019-06-20T17:40:17.375Z,56.00
2019-06-20T17:42:46.757Z,55.90
2019-06-20T17:45:15.792Z,55.90
2019-06-20T17:47:44.204Z,56.10
2019-06-20T17:50:15.695Z,56.90
2019-06-20T17:52:44.664Z,56.40
2019-06-20T17:55:13.591Z,56.50
2019-06-20T17:57:42.008Z,56.70
2019-06-20T18:00:18.457Z,56.70
2019-06-20T18:02:46.881Z,56.80
2019-06-20T18:05:16.985Z,56.80
2019-06-20T18:07:45.484Z,57.00
2019-06-20T18:10:15.586Z,57.00
2019-06-20T18:12:43.993Z,56.90
2019-06-20T18:15:14.251Z,57.10
2019-06-20T18:17:42.706Z,56.90
2019-06-20T18:20:12.978Z,57.00
2019-06-20T18:22:42.019Z,57.00
2019-06-20T18:25:10.768Z,57.10
2019-06-20T18:27:39.175Z,57.10
2019-06-20T18:30:09.920Z,57.50
2019-06-20T18:32:38.358Z,57.20
2019-06-20T18:35:07.724Z,57.30
2019-06-20T18:37:36.123Z,57.40
2019-06-20T18:40:07.798Z,57.50
2019-06-20T18:42:36.222Z,57.50
2019-06-20T18:45:06.260Z,57.80
2019-06-20T18:48:00.314Z,57.60
2019-06-20T18:50:28.714Z,57.60
2019-06-20T18:52:57.135Z,57.70
2019-06-20T18:55:25.701Z,57.80
2019-06-20T18:57:54.197Z,58.00
2019-06-20T19:00:34.154Z,58.40
2019-06-20T19:02:53.923Z,58.60
2019-06-20T19:05:22.928Z,58.70
2019-06-20T19:07:51.510Z,58.80
2019-06-20T19:10:23.485Z,58.80
2019-06-20T19:12:52.098Z,58.70
2019-06-20T19:15:22.007Z,58.70
2019-06-20T19:17:50.470Z,58.80
2019-06-20T19:20:19.687Z,58.60
2019-06-20T19:22:48.336Z,58.60
2019-06-20T19:25:20.982Z,58.60
2019-06-20T19:27:49.415Z,58.60
2019-06-20T19:30:18.447Z,58.60
2019-06-20T19:32:46.863Z,59.30
2019-06-20T19:35:15.960Z,58.60
2019-06-20T19:37:44.397Z,58.70
2019-06-20T19:40:13.353Z,58.70
2019-06-20T19:42:41.761Z,58.70
2019-06-20T19:45:11.194Z,58.80
2019-06-20T19:47:40.357Z,58.80
2019-06-20T19:50:10.308Z,59.10
2019-06-20T19:52:39.041Z,59.30
2019-06-20T19:55:07.922Z,59.50
2019-06-20T19:57:36.425Z,59.70
2019-06-20T20:00:09.530Z,59.80
2019-06-20T20:02:37.992Z,60.10
2019-06-20T20:05:18.453Z,60.30
2019-06-20T20:07:38.146Z,60.60
2019-06-20T20:10:08.178Z,60.80
2019-06-20T20:12:36.627Z,61.20
2019-06-20T20:15:07.371Z,61.40
2019-06-20T20:17:35.782Z,61.70
2019-06-20T20:20:08.506Z,62.00
2019-06-20T20:22:36.905Z,62.30
2019-06-20T20:25:07.970Z,62.70
2019-06-20T20:27:36.388Z,63.10
2019-06-20T20:32:39.811Z,63.10
2019-06-20T20:35:08.656Z,64.20
2019-06-20T20:37:37.068Z,64.50
2019-06-20T20:40:10.649Z,64.70
2019-06-20T20:42:39.061Z,65.00
2019-06-20T20:45:08.053Z,65.30
2019-06-20T20:47:36.461Z,65.60
2019-06-20T20:50:08.841Z,65.80
2019-06-20T20:52:37.229Z,66.20
2019-06-20T20:55:08.190Z,66.50
2019-06-20T20:57:36.619Z,66.70
2019-06-20T21:00:23.075Z,67.10
2019-06-20T21:02:51.810Z,67.30
2019-06-20T21:05:20.276Z,67.30
2019-06-20T21:07:48.789Z,67.40
2019-06-20T21:10:17.594Z,67.60
2019-06-20T21:12:46.012Z,67.80
2019-06-20T21:15:14.696Z,67.80
2019-06-20T21:17:43.164Z,67.90
2019-06-20T21:20:11.726Z,68.10
2019-06-20T21:22:40.241Z,68.50
2019-06-20T21:25:08.982Z,68.50
2019-06-20T21:27:38.374Z,68.70
2019-06-20T21:30:09.048Z,68.90
2019-06-20T21:32:37.470Z,69.00
2019-06-20T21:35:07.704Z,69.20
2019-06-20T21:37:36.125Z,69.40
2019-06-20T21:40:06.360Z,69.60
2019-06-20T21:42:34.778Z,69.80
2019-06-20T21:45:04.354Z,69.90
2019-06-20T21:47:32.812Z,70.00
2019-06-20T21:50:09.037Z,70.20
2019-06-20T21:52:37.936Z,70.20
2019-06-20T21:55:07.382Z,70.20
2019-06-20T21:57:35.788Z,70.20
2019-06-20T22:00:13.148Z,70.40
2019-06-20T22:02:41.695Z,70.30
2019-06-20T22:05:10.455Z,70.50
2019-06-20T22:07:38.860Z,70.60
2019-06-20T22:10:07.897Z,70.80
2019-06-20T22:12:36.307Z,70.80
2019-06-20T22:15:09.598Z,70.70
2019-06-20T22:17:38.150Z,70.80
2019-06-20T22:20:08.310Z,70.90
2019-06-20T22:22:36.778Z,70.90
2019-06-20T22:25:07.286Z,71.00
2019-06-20T22:27:35.771Z,71.10
2019-06-20T22:30:07.724Z,71.10
2019-06-20T22:32:36.158Z,71.20
2019-06-20T22:35:06.953Z,71.50
2019-06-20T22:37:35.368Z,71.70
2019-06-20T22:40:06.383Z,71.60
2019-06-20T22:42:34.763Z,71.60
2019-06-20T22:45:07.142Z,71.60
2019-06-20T22:47:35.242Z,71.60
2019-06-20T22:50:07.487Z,71.50
2019-06-20T22:52:35.893Z,71.60
2019-06-20T22:55:06.051Z,71.50
2019-06-20T22:57:34.459Z,71.50
2019-06-20T23:00:04.517Z,71.30
2019-06-20T23:02:32.899Z,71.20
2019-06-20T23:05:01.450Z,71.10
2019-06-20T23:07:29.905Z,71.10
2019-06-20T23:10:09.681Z,71.10
2019-06-20T23:12:28.454Z,71.10
2019-06-20T23:14:57.118Z,71.10
2019-06-20T23:17:25.793Z,71.20
2019-06-20T23:19:54.266Z,71.30
2019-06-20T23:22:22.708Z,71.20
2019-06-20T23:24:51.109Z,71.20
2019-06-20T23:27:19.522Z,71.30
2019-06-20T23:29:47.952Z,71.20
2019-06-20T23:32:16.627Z,71.20
2019-06-20T23:34:45.058Z,71.30
2019-06-20T23:37:13.743Z,71.30
2019-06-20T23:39:42.302Z,71.20
2019-06-20T23:42:11.198Z,71.20
2019-06-20T23:44:39.598Z,71.30
2019-06-20T23:47:08.057Z,71.40
2019-06-20T23:49:36.454Z,71.70
2019-06-20T23:52:06.529Z,71.70
2019-06-20T23:54:34.938Z,71.80
2019-06-20T23:57:03.346Z,71.90
2019-06-20T23:59:31.760Z,72.20
